sensor_id;sensor_type;location;lat;lon;timestamp;P1;durP1;ratioP1;P2;durP2;ratioP2
76667;SDS011;65585;51.166;16.922;2024-01-15T00:00:18;12.40;;;8.13;;
76667;SDS011;65585;51.166;16.922;2024-01-15T00:03:04;13.40;;;8.05;;
76667;SDS011;65585;51.166;16.922;2024-01-15T00:05:30;14.82;;;7.47;;
76667;SDS011;65585;51.166;16.922;2024-01-15T00:07:56;13.60;;;7.57;;
76667;SDS011;65585;51.166;16.922;2024-01-15T00:10:22;14.57;;;7.93;;
76667;SDS011;65585;51.166;16.922;2024-01-15T00:12:49;12.77;;;7.32;;
76667;SDS011;65585;51.166;16.922;2024-01-15T00:15:15;12.65;;;6.95;;
76667;SDS011;65585;51.166;16.922;2024-01-15T00:17:41;13.02;;;7.78;;
76667;SDS011;65585;51.166;16.922;2024-01-15T00:20:07;13.15;;;8.10;;
76667;SDS011;65585;51.166;16.922;2024-01-15T00:22:34;13.20;;;7.80;;
76667;SDS011;65585;51.166;16.922;2024-01-15T00:25:01;14.25;;;8.13;;
76667;SDS011;65585;51.166;16.922;2024-01-15T00:27:27;18.13;;;8.15;;
76667;SDS011;65585;51.166;16.922;2024-01-15T00:29:54;12.75;;;7.00;;
76667;SDS011;65585;51.166;16.922;2024-01-15T00:32:20;13.43;;;9.40;;
76667;SDS011;65585;51.166;16.922;2024-01-15T00:34:46;15.85;;;8.25;;
76667;SDS011;65585;51.166;16.922;2024-01-15T00:37:12;12.00;;;7.53;;
76667;SDS011;65585;51.166;16.922;2024-01-15T00:39:38;13.85;;;7.28;;
76667;SDS011;65585;51.166;16.922;2024-01-15T00:42:04;10.77;;;6.80;;
76667;SDS011;65585;51.166;16.922;2024-01-15T00:44:30;12.43;;;7.60;;
76667;SDS011;65585;51.166;16.922;2024-01-15T00:46:56;11.85;;;7.13;;
76667;SDS011;65585;51.166;16.922;2024-01-15T00:49:22;11.95;;;7.22;;
76667;SDS011;65585;51.166;16.922;2024-01-15T00:51:48;11.00;;;7.38;;
76667;SDS011;65585;51.166;16.922;2024-01-15T00:54:14;13.77;;;7.10;;
76667;SDS011;65585;51.166;16.922;2024-01-15T00:56:40;10.75;;;6.55;;
76667;SDS011;65585;51.166;16.922;2024-01-15T00:59:06;13.07;;;6.60;;
76667;SDS011;65585;51.166;16.922;2024-01-15T01:01:33;11.73;;;7.18;;
76667;SDS011;65585;51.166;16.922;2024-01-15T01:03:59;12.35;;;6.63;;
76667;SDS011;65585;51.166;16.922;2024-01-15T01:06:25;14.52;;;7.43;;
76667;SDS011;65585;51.166;16.922;2024-01-15T01:08:51;11.70;;;6.82;;
76667;SDS011;65585;51.166;16.922;2024-01-15T01:11:16;9.63;;;6.82;;
76667;SDS011;65585;51.166;16.922;2024-01-15T01:13:43;11.73;;;6.57;;
76667;SDS011;65585;51.166;16.922;2024-01-15T01:16:09;10.48;;;6.70;;
76667;SDS011;65585;51.166;16.922;2024-01-15T01:18:35;11.80;;;5.43;;
76667;SDS011;65585;51.166;16.922;2024-01-15T01:21:01;10.45;;;6.07;;
76667;SDS011;65585;51.166;16.922;2024-01-15T01:23:28;9.40;;;5.35;;
76667;SDS011;65585;51.166;16.922;2024-01-15T01:25:54;9.40;;;5.93;;
76667;SDS011;65585;51.166;16.922;2024-01-15T01:28:20;11.38;;;6.07;;
76667;SDS011;65585;51.166;16.922;2024-01-15T01:30:46;9.70;;;6.22;;
76667;SDS011;65585;51.166;16.922;2024-01-15T01:33:12;11.65;;;6.93;;
76667;SDS011;65585;51.166;16.922;2024-01-15T01:35:37;7.40;;;5.53;;
76667;SDS011;65585;51.166;16.922;2024-01-15T01:38:04;10.60;;;6.07;;
76667;SDS011;65585;51.166;16.922;2024-01-15T01:42:55;13.83;;;7.20;;
76667;SDS011;65585;51.166;16.922;2024-01-15T01:45:57;11.63;;;6.35;;
76667;SDS011;65585;51.166;16.922;2024-01-15T01:48:33;8.75;;;6.03;;
76667;SDS011;65585;51.166;16.922;2024-01-15T01:51:22;13.07;;;8.23;;
76667;SDS011;65585;51.166;16.922;2024-01-15T01:54:00;8.57;;;5.47;;
76667;SDS011;65585;51.166;16.922;2024-01-15T01:56:38;10.25;;;6.15;;
76667;SDS011;65585;51.166;16.922;2024-01-15T01:59:09;11.30;;;6.05;;
76667;SDS011;65585;51.166;16.922;2024-01-15T02:01:44;12.43;;;5.68;;
76667;SDS011;65585;51.166;16.922;2024-01-15T02:04:26;10.95;;;4.60;;
76667;SDS011;65585;51.166;16.922;2024-01-15T02:07:05;10.15;;;5.95;;
76667;SDS011;65585;51.166;16.922;2024-01-15T02:09:51;10.55;;;5.88;;
76667;SDS011;65585;51.166;16.922;2024-01-15T02:12:29;9.60;;;5.43;;
76667;SDS011;65585;51.166;16.922;2024-01-15T02:15:06;11.32;;;6.65;;
76667;SDS011;65585;51.166;16.922;2024-01-15T02:18:00;8.52;;;5.63;;
76667;SDS011;65585;51.166;16.922;2024-01-15T02:20:40;8.25;;;5.95;;
76667;SDS011;65585;51.166;16.922;2024-01-15T02:23:23;9.93;;;5.65;;
76667;SDS011;65585;51.166;16.922;2024-01-15T02:26:09;11.10;;;6.63;;
76667;SDS011;65585;51.166;16.922;2024-01-15T02:28:51;10.20;;;5.00;;
76667;SDS011;65585;51.166;16.922;2024-01-15T02:31:22;9.43;;;5.72;;
76667;SDS011;65585;51.166;16.922;2024-01-15T02:33:54;8.55;;;5.70;;
76667;SDS011;65585;51.166;16.922;2024-01-15T02:36:43;9.88;;;5.95;;
76667;SDS011;65585;51.166;16.922;2024-01-15T02:39:19;10.65;;;5.88;;
76667;SDS011;65585;51.166;16.922;2024-01-15T02:41:53;8.35;;;5.45;;
76667;SDS011;65585;51.166;16.922;2024-01-15T02:44:26;8.27;;;5.18;;
76667;SDS011;65585;51.166;16.922;2024-01-15T02:47:00;9.63;;;6.15;;
76667;SDS011;65585;51.166;16.922;2024-01-15T02:49:41;6.85;;;4.68;;
76667;SDS011;65585;51.166;16.922;2024-01-15T02:52:13;8.95;;;4.82;;
76667;SDS011;65585;51.166;16.922;2024-01-15T02:54:51;8.65;;;5.32;;
76667;SDS011;65585;51.166;16.922;2024-01-15T02:57:35;8.75;;;5.65;;
76667;SDS011;65585;51.166;16.922;2024-01-15T03:00:22;8.90;;;6.82;;
76667;SDS011;65585;51.166;16.922;2024-01-15T03:02:49;8.13;;;5.45;;
76667;SDS011;65585;51.166;16.922;2024-01-15T03:05:27;10.23;;;6.05;;
76667;SDS011;65585;51.166;16.922;2024-01-15T03:08:09;7.57;;;5.40;;
76667;SDS011;65585;51.166;16.922;2024-01-15T03:14:10;9.18;;;4.53;;
76667;SDS011;65585;51.166;16.922;2024-01-15T03:17:04;7.82;;;5.55;;
76667;SDS011;65585;51.166;16.922;2024-01-15T03:19:42;7.03;;;4.03;;
76667;SDS011;65585;51.166;16.922;2024-01-15T03:22:22;9.00;;;5.20;;
76667;SDS011;65585;51.166;16.922;2024-01-15T03:24:57;7.43;;;4.80;;
76667;SDS011;65585;51.166;16.922;2024-01-15T03:30:06;11.52;;;4.53;;
76667;SDS011;65585;51.166;16.922;2024-01-15T03:32:41;7.47;;;4.75;;
76667;SDS011;65585;51.166;16.922;2024-01-15T03:35:18;6.15;;;3.63;;
76667;SDS011;65585;51.166;16.922;2024-01-15T03:38:16;8.52;;;4.63;;
76667;SDS011;65585;51.166;16.922;2024-01-15T03:41:12;7.30;;;4.68;;
76667;SDS011;65585;51.166;16.922;2024-01-15T03:43:52;6.50;;;4.07;;
76667;SDS011;65585;51.166;16.922;2024-01-15T03:46:26;8.35;;;4.35;;
76667;SDS011;65585;51.166;16.922;2024-01-15T03:48:55;6.60;;;3.75;;
76667;SDS011;65585;51.166;16.922;2024-01-15T03:51:28;8.07;;;4.80;;
76667;SDS011;65585;51.166;16.922;2024-01-15T03:53:59;7.35;;;4.43;;
76667;SDS011;65585;51.166;16.922;2024-01-15T03:56:38;7.30;;;4.40;;
76667;SDS011;65585;51.166;16.922;2024-01-15T03:59:23;7.93;;;4.70;;
76667;SDS011;65585;51.166;16.922;2024-01-15T04:02:08;7.38;;;4.75;;
76667;SDS011;65585;51.166;16.922;2024-01-15T04:04:44;7.63;;;5.22;;
76667;SDS011;65585;51.166;16.922;2024-01-15T04:07:16;7.55;;;4.72;;
76667;SDS011;65585;51.166;16.922;2024-01-15T04:09:55;6.55;;;4.55;;
76667;SDS011;65585;51.166;16.922;2024-01-15T04:12:40;7.43;;;4.40;;
76667;SDS011;65585;51.166;16.922;2024-01-15T04:15:24;10.27;;;4.88;;
76667;SDS011;65585;51.166;16.922;2024-01-15T04:17:52;6.38;;;3.60;;
76667;SDS011;65585;51.166;16.922;2024-01-15T04:20:24;5.28;;;3.53;;
76667;SDS011;65585;51.166;16.922;2024-01-15T04:22:52;5.90;;;3.47;;
76667;SDS011;65585;51.166;16.922;2024-01-15T04:25:24;6.03;;;3.78;;
76667;SDS011;65585;51.166;16.922;2024-01-15T04:28:00;5.93;;;3.20;;
76667;SDS011;65585;51.166;16.922;2024-01-15T04:30:46;5.40;;;3.08;;
76667;SDS011;65585;51.166;16.922;2024-01-15T04:33:18;4.18;;;3.00;;
76667;SDS011;65585;51.166;16.922;2024-01-15T04:36:15;4.85;;;3.40;;
76667;SDS011;65585;51.166;16.922;2024-01-15T04:38:44;4.15;;;2.58;;
76667;SDS011;65585;51.166;16.922;2024-01-15T04:41:17;6.40;;;3.60;;
76667;SDS011;65585;51.166;16.922;2024-01-15T04:43:57;5.22;;;2.97;;
76667;SDS011;65585;51.166;16.922;2024-01-15T04:46:43;3.67;;;2.92;;
76667;SDS011;65585;51.166;16.922;2024-01-15T04:49:18;6.70;;;3.65;;
76667;SDS011;65585;51.166;16.922;2024-01-15T04:51:55;4.95;;;3.05;;
76667;SDS011;65585;51.166;16.922;2024-01-15T04:54:27;4.45;;;2.80;;
76667;SDS011;65585;51.166;16.922;2024-01-15T04:57:14;4.15;;;3.30;;
76667;SDS011;65585;51.166;16.922;2024-01-15T04:59:43;5.90;;;3.70;;
76667;SDS011;65585;51.166;16.922;2024-01-15T05:02:15;5.43;;;2.97;;
76667;SDS011;65585;51.166;16.922;2024-01-15T05:04:41;4.97;;;3.38;;
76667;SDS011;65585;51.166;16.922;2024-01-15T05:07:13;5.57;;;3.05;;
76667;SDS011;65585;51.166;16.922;2024-01-15T05:10:00;5.63;;;3.47;;
76667;SDS011;65585;51.166;16.922;2024-01-15T05:12:34;4.30;;;3.63;;
76667;SDS011;65585;51.166;16.922;2024-01-15T05:15:10;6.78;;;3.72;;
76667;SDS011;65585;51.166;16.922;2024-01-15T05:17:45;7.35;;;4.13;;
76667;SDS011;65585;51.166;16.922;2024-01-15T05:20:17;5.35;;;3.53;;
76667;SDS011;65585;51.166;16.922;2024-01-15T05:22:48;7.13;;;4.20;;
76667;SDS011;65585;51.166;16.922;2024-01-15T05:25:25;6.60;;;3.92;;
76667;SDS011;65585;51.166;16.922;2024-01-15T05:28:13;8.32;;;3.95;;
76667;SDS011;65585;51.166;16.922;2024-01-15T05:30:57;5.85;;;3.17;;
76667;SDS011;65585;51.166;16.922;2024-01-15T05:33:31;7.72;;;4.93;;
76667;SDS011;65585;51.166;16.922;2024-01-15T05:36:00;6.32;;;4.57;;
76667;SDS011;65585;51.166;16.922;2024-01-15T05:38:44;8.27;;;3.97;;
76667;SDS011;65585;51.166;16.922;2024-01-15T05:41:38;7.32;;;4.50;;
76667;SDS011;65585;51.166;16.922;2024-01-15T05:44:53;8.70;;;5.55;;
76667;SDS011;65585;51.166;16.922;2024-01-15T05:47:31;6.90;;;4.38;;
76667;SDS011;65585;51.166;16.922;2024-01-15T05:50:21;6.75;;;3.97;;
76667;SDS011;65585;51.166;16.922;2024-01-15T05:53:05;7.28;;;4.50;;
76667;SDS011;65585;51.166;16.922;2024-01-15T05:55:43;7.03;;;4.38;;
76667;SDS011;65585;51.166;16.922;2024-01-15T05:58:18;6.80;;;4.47;;
76667;SDS011;65585;51.166;16.922;2024-01-15T06:01:11;8.43;;;4.82;;
76667;SDS011;65585;51.166;16.922;2024-01-15T06:04:09;6.95;;;4.20;;
76667;SDS011;65585;51.166;16.922;2024-01-15T06:11:38;6.40;;;3.63;;
76667;SDS011;65585;51.166;16.922;2024-01-15T06:14:54;4.43;;;2.78;;
76667;SDS011;65585;51.166;16.922;2024-01-15T06:17:39;7.25;;;4.47;;
76667;SDS011;65585;51.166;16.922;2024-01-15T06:21:05;6.13;;;4.22;;
76667;SDS011;65585;51.166;16.922;2024-01-15T06:27:13;6.70;;;3.90;;
76667;SDS011;65585;51.166;16.922;2024-01-15T06:31:02;6.90;;;4.60;;
76667;SDS011;65585;51.166;16.922;2024-01-15T06:43:24;8.18;;;4.53;;
76667;SDS011;65585;51.166;16.922;2024-01-15T06:54:10;6.95;;;4.15;;
76667;SDS011;65585;51.166;16.922;2024-01-15T06:56:44;6.97;;;4.85;;
76667;SDS011;65585;51.166;16.922;2024-01-15T06:59:49;8.00;;;4.85;;
76667;SDS011;65585;51.166;16.922;2024-01-15T07:02:18;8.60;;;4.70;;
76667;SDS011;65585;51.166;16.922;2024-01-15T07:04:48;8.65;;;4.35;;
76667;SDS011;65585;51.166;16.922;2024-01-15T07:07:17;9.02;;;4.85;;
76667;SDS011;65585;51.166;16.922;2024-01-15T07:09:46;8.68;;;5.07;;
76667;SDS011;65585;51.166;16.922;2024-01-15T07:12:14;7.22;;;4.47;;
76667;SDS011;65585;51.166;16.922;2024-01-15T07:14:42;10.20;;;5.07;;
76667;SDS011;65585;51.166;16.922;2024-01-15T07:17:08;8.90;;;4.75;;
76667;SDS011;65585;51.166;16.922;2024-01-15T07:19:43;6.18;;;3.97;;
76667;SDS011;65585;51.166;16.922;2024-01-15T07:22:09;7.18;;;4.60;;
76667;SDS011;65585;51.166;16.922;2024-01-15T07:24:36;7.85;;;4.35;;
76667;SDS011;65585;51.166;16.922;2024-01-15T07:27:06;7.90;;;3.88;;
76667;SDS011;65585;51.166;16.922;2024-01-15T07:29:38;7.40;;;4.75;;
76667;SDS011;65585;51.166;16.922;2024-01-15T07:32:14;7.22;;;4.03;;
76667;SDS011;65585;51.166;16.922;2024-01-15T07:34:45;7.47;;;4.95;;
76667;SDS011;65585;51.166;16.922;2024-01-15T07:37:12;5.80;;;3.40;;
76667;SDS011;65585;51.166;16.922;2024-01-15T07:39:38;7.80;;;3.83;;
76667;SDS011;65585;51.166;16.922;2024-01-15T07:42:04;9.60;;;5.57;;
76667;SDS011;65585;51.166;16.922;2024-01-15T07:44:34;6.18;;;3.80;;
76667;SDS011;65585;51.166;16.922;2024-01-15T07:47:00;7.35;;;4.32;;
76667;SDS011;65585;51.166;16.922;2024-01-15T07:49:26;6.55;;;3.38;;
76667;SDS011;65585;51.166;16.922;2024-01-15T07:51:52;7.20;;;4.97;;
76667;SDS011;65585;51.166;16.922;2024-01-15T07:54:20;7.60;;;4.65;;
76667;SDS011;65585;51.166;16.922;2024-01-15T07:57:19;5.47;;;3.17;;
76667;SDS011;65585;51.166;16.922;2024-01-15T07:59:40;6.22;;;4.47;;
76667;SDS011;65585;51.166;16.922;2024-01-15T08:02:13;5.82;;;3.38;;
76667;SDS011;65585;51.166;16.922;2024-01-15T08:04:47;5.05;;;3.35;;
76667;SDS011;65585;51.166;16.922;2024-01-15T08:07:17;5.75;;;3.05;;
76667;SDS011;65585;51.166;16.922;2024-01-15T08:09:44;7.07;;;4.13;;
76667;SDS011;65585;51.166;16.922;2024-01-15T08:12:20;6.03;;;3.25;;
76667;SDS011;65585;51.166;16.922;2024-01-15T08:14:51;5.70;;;3.70;;
76667;SDS011;65585;51.166;16.922;2024-01-15T08:17:20;5.00;;;3.17;;
76667;SDS011;65585;51.166;16.922;2024-01-15T08:19:49;5.05;;;3.30;;
76667;SDS011;65585;51.166;16.922;2024-01-15T08:22:18;9.45;;;3.80;;
76667;SDS011;65585;51.166;16.922;2024-01-15T08:24:48;8.25;;;2.90;;
76667;SDS011;65585;51.166;16.922;2024-01-15T08:27:22;5.95;;;3.45;;
76667;SDS011;65585;51.166;16.922;2024-01-15T08:29:53;5.30;;;3.25;;
76667;SDS011;65585;51.166;16.922;2024-01-15T08:32:22;6.28;;;3.47;;
76667;SDS011;65585;51.166;16.922;2024-01-15T08:34:52;7.03;;;2.70;;
76667;SDS011;65585;51.166;16.922;2024-01-15T08:43:18;6.43;;;3.58;;
76667;SDS011;65585;51.166;16.922;2024-01-15T08:46:05;3.97;;;2.75;;
76667;SDS011;65585;51.166;16.922;2024-01-15T08:48:34;7.35;;;3.70;;
76667;SDS011;65585;51.166;16.922;2024-01-15T08:51:05;7.40;;;3.42;;
76667;SDS011;65585;51.166;16.922;2024-01-15T08:57:21;6.40;;;3.20;;
76667;SDS011;65585;51.166;16.922;2024-01-15T08:59:56;5.65;;;2.70;;
76667;SDS011;65585;51.166;16.922;2024-01-15T09:02:31;7.20;;;3.53;;
76667;SDS011;65585;51.166;16.922;2024-01-15T09:05:22;5.72;;;3.00;;
76667;SDS011;65585;51.166;16.922;2024-01-15T09:07:54;4.70;;;3.20;;
76667;SDS011;65585;51.166;16.922;2024-01-15T09:10:22;5.90;;;3.38;;
76667;SDS011;65585;51.166;16.922;2024-01-15T09:12:49;3.55;;;2.42;;
76667;SDS011;65585;51.166;16.922;2024-01-15T09:15:22;7.63;;;3.40;;
76667;SDS011;65585;51.166;16.922;2024-01-15T09:17:49;6.38;;;3.20;;
76667;SDS011;65585;51.166;16.922;2024-01-15T09:20:16;7.18;;;3.53;;
76667;SDS011;65585;51.166;16.922;2024-01-15T09:23:03;6.72;;;3.60;;
76667;SDS011;65585;51.166;16.922;2024-01-15T09:25:32;8.50;;;3.60;;
76667;SDS011;65585;51.166;16.922;2024-01-15T09:27:58;3.75;;;3.00;;
76667;SDS011;65585;51.166;16.922;2024-01-15T09:30:25;8.38;;;3.60;;
76667;SDS011;65585;51.166;16.922;2024-01-15T09:33:00;12.88;;;3.33;;
76667;SDS011;65585;51.166;16.922;2024-01-15T09:35:26;7.13;;;3.10;;
76667;SDS011;65585;51.166;16.922;2024-01-15T09:37:56;8.13;;;3.72;;
76667;SDS011;65585;51.166;16.922;2024-01-15T09:40:26;6.05;;;3.33;;
76667;SDS011;65585;51.166;16.922;2024-01-15T09:43:01;4.82;;;3.55;;
76667;SDS011;65585;51.166;16.922;2024-01-15T09:45:31;5.53;;;3.30;;
76667;SDS011;65585;51.166;16.922;2024-01-15T09:48:04;6.75;;;3.20;;
76667;SDS011;65585;51.166;16.922;2024-01-15T09:50:35;6.30;;;3.22;;
76667;SDS011;65585;51.166;16.922;2024-01-15T09:53:05;3.97;;;2.65;;
76667;SDS011;65585;51.166;16.922;2024-01-15T09:55:36;5.35;;;3.22;;
76667;SDS011;65585;51.166;16.922;2024-01-15T09:58:05;5.93;;;3.05;;
76667;SDS011;65585;51.166;16.922;2024-01-15T10:00:31;7.75;;;3.55;;
76667;SDS011;65585;51.166;16.922;2024-01-15T10:02:59;6.10;;;3.47;;
76667;SDS011;65585;51.166;16.922;2024-01-15T10:05:30;7.55;;;3.17;;
76667;SDS011;65585;51.166;16.922;2024-01-15T10:07:59;8.30;;;3.50;;
76667;SDS011;65585;51.166;16.922;2024-01-15T10:10:31;5.32;;;3.25;;
76667;SDS011;65585;51.166;16.922;2024-01-15T10:12:58;4.13;;;2.80;;
76667;SDS011;65585;51.166;16.922;2024-01-15T10:15:26;5.35;;;2.72;;
76667;SDS011;65585;51.166;16.922;2024-01-15T10:17:55;4.28;;;2.45;;
76667;SDS011;65585;51.166;16.922;2024-01-15T10:20:21;6.22;;;3.40;;
76667;SDS011;65585;51.166;16.922;2024-01-15T10:23:21;5.63;;;3.20;;
76667;SDS011;65585;51.166;16.922;2024-01-15T10:25:48;6.25;;;2.92;;
76667;SDS011;65585;51.166;16.922;2024-01-15T10:28:15;6.47;;;3.13;;
76667;SDS011;65585;51.166;16.922;2024-01-15T10:30:46;6.38;;;3.20;;
76667;SDS011;65585;51.166;16.922;2024-01-15T10:33:12;4.40;;;3.20;;
76667;SDS011;65585;51.166;16.922;2024-01-15T10:35:38;6.68;;;3.42;;
76667;SDS011;65585;51.166;16.922;2024-01-15T10:38:07;5.55;;;2.88;;
76667;SDS011;65585;51.166;16.922;2024-01-15T10:40:33;8.20;;;2.70;;
76667;SDS011;65585;51.166;16.922;2024-01-15T10:43:01;5.93;;;3.33;;
76667;SDS011;65585;51.166;16.922;2024-01-15T10:45:27;8.73;;;3.63;;
76667;SDS011;65585;51.166;16.922;2024-01-15T10:47:54;5.50;;;3.05;;
76667;SDS011;65585;51.166;16.922;2024-01-15T10:50:28;6.28;;;3.67;;
76667;SDS011;65585;51.166;16.922;2024-01-15T10:52:56;8.30;;;3.67;;
76667;SDS011;65585;51.166;16.922;2024-01-15T10:55:40;5.93;;;2.75;;
76667;SDS011;65585;51.166;16.922;2024-01-15T10:58:16;4.30;;;2.50;;
76667;SDS011;65585;51.166;16.922;2024-01-15T11:00:43;5.45;;;2.85;;
76667;SDS011;65585;51.166;16.922;2024-01-15T11:03:12;5.43;;;2.55;;
76667;SDS011;65585;51.166;16.922;2024-01-15T11:06:05;5.53;;;3.28;;
76667;SDS011;65585;51.166;16.922;2024-01-15T11:08:53;8.05;;;3.53;;
76667;SDS011;65585;51.166;16.922;2024-01-15T11:13:50;4.03;;;2.30;;
76667;SDS011;65585;51.166;16.922;2024-01-15T11:16:18;4.68;;;2.65;;
76667;SDS011;65585;51.166;16.922;2024-01-15T11:21:26;5.80;;;2.55;;
76667;SDS011;65585;51.166;16.922;2024-01-15T11:23:59;5.85;;;3.10;;
76667;SDS011;65585;51.166;16.922;2024-01-15T11:32:33;3.83;;;2.55;;
76667;SDS011;65585;51.166;16.922;2024-01-15T11:35:16;6.50;;;3.10;;
76667;SDS011;65585;51.166;16.922;2024-01-15T11:38:28;3.92;;;2.78;;
76667;SDS011;65585;51.166;16.922;2024-01-15T11:40:55;6.88;;;2.90;;
76667;SDS011;65585;51.166;16.922;2024-01-15T11:43:25;6.82;;;2.90;;
76667;SDS011;65585;51.166;16.922;2024-01-15T11:45:51;7.55;;;3.03;;
76667;SDS011;65585;51.166;16.922;2024-01-15T11:48:22;5.47;;;3.65;;
76667;SDS011;65585;51.166;16.922;2024-01-15T11:50:50;5.00;;;2.70;;
76667;SDS011;65585;51.166;16.922;2024-01-15T11:53:36;7.10;;;3.10;;
76667;SDS011;65585;51.166;16.922;2024-01-15T11:56:17;4.97;;;2.90;;
76667;SDS011;65585;51.166;16.922;2024-01-15T11:58:43;7.10;;;3.03;;
76667;SDS011;65585;51.166;16.922;2024-01-15T12:01:10;4.07;;;2.83;;
76667;SDS011;65585;51.166;16.922;2024-01-15T12:03:36;10.65;;;2.65;;
76667;SDS011;65585;51.166;16.922;2024-01-15T12:06:07;6.18;;;2.65;;
76667;SDS011;65585;51.166;16.922;2024-01-15T12:08:38;7.28;;;3.13;;
76667;SDS011;65585;51.166;16.922;2024-01-15T12:11:13;9.55;;;3.22;;
76667;SDS011;65585;51.166;16.922;2024-01-15T12:13:39;5.50;;;3.13;;
76667;SDS011;65585;51.166;16.922;2024-01-15T12:16:06;6.07;;;3.10;;
76667;SDS011;65585;51.166;16.922;2024-01-15T12:18:32;4.65;;;3.13;;
76667;SDS011;65585;51.166;16.922;2024-01-15T12:21:15;8.32;;;3.33;;
76667;SDS011;65585;51.166;16.922;2024-01-15T12:23:45;7.53;;;3.28;;
76667;SDS011;65585;51.166;16.922;2024-01-15T12:28:53;7.53;;;2.70;;
76667;SDS011;65585;51.166;16.922;2024-01-15T12:31:21;4.95;;;3.22;;
76667;SDS011;65585;51.166;16.922;2024-01-15T12:37:12;5.10;;;2.92;;
76667;SDS011;65585;51.166;16.922;2024-01-15T12:39:38;7.65;;;3.33;;
76667;SDS011;65585;51.166;16.922;2024-01-15T12:42:04;7.47;;;3.97;;
76667;SDS011;65585;51.166;16.922;2024-01-15T12:44:34;6.82;;;3.78;;
76667;SDS011;65585;51.166;16.922;2024-01-15T12:47:08;5.13;;;2.72;;
76667;SDS011;65585;51.166;16.922;2024-01-15T12:49:46;6.05;;;3.63;;
76667;SDS011;65585;51.166;16.922;2024-01-15T12:52:19;6.90;;;3.17;;
76667;SDS011;65585;51.166;16.922;2024-01-15T12:55:26;5.93;;;3.75;;
76667;SDS011;65585;51.166;16.922;2024-01-15T12:57:53;4.93;;;2.75;;
76667;SDS011;65585;51.166;16.922;2024-01-15T13:00:22;5.07;;;3.00;;
76667;SDS011;65585;51.166;16.922;2024-01-15T13:02:52;7.85;;;4.20;;
76667;SDS011;65585;51.166;16.922;2024-01-15T13:05:18;7.32;;;3.55;;
76667;SDS011;65585;51.166;16.922;2024-01-15T13:07:45;6.53;;;3.15;;
76667;SDS011;65585;51.166;16.922;2024-01-15T13:10:12;7.90;;;3.22;;
76667;SDS011;65585;51.166;16.922;2024-01-15T13:12:39;5.10;;;2.88;;
76667;SDS011;65585;51.166;16.922;2024-01-15T13:15:06;5.70;;;3.28;;
76667;SDS011;65585;51.166;16.922;2024-01-15T13:17:39;8.68;;;4.18;;
76667;SDS011;65585;51.166;16.922;2024-01-15T13:20:06;6.38;;;3.30;;
76667;SDS011;65585;51.166;16.922;2024-01-15T13:22:34;5.70;;;3.08;;
76667;SDS011;65585;51.166;16.922;2024-01-15T13:25:02;5.90;;;3.30;;
76667;SDS011;65585;51.166;16.922;2024-01-15T13:27:29;5.47;;;2.90;;
76667;SDS011;65585;51.166;16.922;2024-01-15T13:29:56;5.88;;;3.53;;
76667;SDS011;65585;51.166;16.922;2024-01-15T13:32:28;9.13;;;3.35;;
76667;SDS011;65585;51.166;16.922;2024-01-15T13:34:55;9.02;;;4.03;;
76667;SDS011;65585;51.166;16.922;2024-01-15T13:37:22;5.47;;;3.38;;
76667;SDS011;65585;51.166;16.922;2024-01-15T13:39:51;7.22;;;3.47;;
76667;SDS011;65585;51.166;16.922;2024-01-15T13:42:18;4.78;;;2.88;;
76667;SDS011;65585;51.166;16.922;2024-01-15T13:44:46;10.68;;;3.10;;
76667;SDS011;65585;51.166;16.922;2024-01-15T13:47:12;6.47;;;3.17;;
76667;SDS011;65585;51.166;16.922;2024-01-15T13:49:38;5.03;;;3.10;;
76667;SDS011;65585;51.166;16.922;2024-01-15T13:52:05;6.05;;;3.13;;
76667;SDS011;65585;51.166;16.922;2024-01-15T13:54:36;5.30;;;2.92;;
76667;SDS011;65585;51.166;16.922;2024-01-15T13:57:08;5.43;;;3.47;;
76667;SDS011;65585;51.166;16.922;2024-01-15T13:59:34;4.78;;;2.90;;
76667;SDS011;65585;51.166;16.922;2024-01-15T14:02:01;5.00;;;3.28;;
76667;SDS011;65585;51.166;16.922;2024-01-15T14:04:30;7.95;;;4.70;;
76667;SDS011;65585;51.166;16.922;2024-01-15T14:06:56;6.25;;;3.55;;
76667;SDS011;65585;51.166;16.922;2024-01-15T14:09:23;5.13;;;2.80;;
76667;SDS011;65585;51.166;16.922;2024-01-15T14:11:54;8.50;;;3.72;;
76667;SDS011;65585;51.166;16.922;2024-01-15T14:14:20;9.38;;;3.83;;
76667;SDS011;65585;51.166;16.922;2024-01-15T14:16:50;6.72;;;3.70;;
76667;SDS011;65585;51.166;16.922;2024-01-15T14:19:30;6.28;;;2.78;;
76667;SDS011;65585;51.166;16.922;2024-01-15T14:21:56;3.75;;;2.78;;
76667;SDS011;65585;51.166;16.922;2024-01-15T14:24:34;8.52;;;3.00;;
76667;SDS011;65585;51.166;16.922;2024-01-15T14:29:32;4.07;;;2.50;;
76667;SDS011;65585;51.166;16.922;2024-01-15T14:31:59;5.28;;;3.38;;
76667;SDS011;65585;51.166;16.922;2024-01-15T14:34:25;8.32;;;2.55;;
76667;SDS011;65585;51.166;16.922;2024-01-15T14:36:52;4.15;;;3.10;;
76667;SDS011;65585;51.166;16.922;2024-01-15T14:39:21;5.30;;;3.00;;
76667;SDS011;65585;51.166;16.922;2024-01-15T14:41:51;6.28;;;3.08;;
76667;SDS011;65585;51.166;16.922;2024-01-15T14:44:22;6.32;;;3.45;;
76667;SDS011;65585;51.166;16.922;2024-01-15T14:46:52;4.43;;;3.30;;
76667;SDS011;65585;51.166;16.922;2024-01-15T14:49:18;7.45;;;2.70;;
76667;SDS011;65585;51.166;16.922;2024-01-15T14:51:50;4.80;;;3.63;;
76667;SDS011;65585;51.166;16.922;2024-01-15T14:54:20;6.20;;;3.22;;
76667;SDS011;65585;51.166;16.922;2024-01-15T14:56:46;5.35;;;2.83;;
76667;SDS011;65585;51.166;16.922;2024-01-15T14:59:16;9.25;;;3.45;;
76667;SDS011;65585;51.166;16.922;2024-01-15T15:01:42;7.38;;;2.92;;
76667;SDS011;65585;51.166;16.922;2024-01-15T15:04:10;5.50;;;3.28;;
76667;SDS011;65585;51.166;16.922;2024-01-15T15:06:36;4.25;;;2.88;;
76667;SDS011;65585;51.166;16.922;2024-01-15T15:09:03;4.93;;;3.00;;
76667;SDS011;65585;51.166;16.922;2024-01-15T15:11:34;3.50;;;2.35;;
76667;SDS011;65585;51.166;16.922;2024-01-15T15:14:03;4.25;;;2.45;;
76667;SDS011;65585;51.166;16.922;2024-01-15T15:16:32;5.43;;;2.97;;
76667;SDS011;65585;51.166;16.922;2024-01-15T15:19:01;6.68;;;2.90;;
76667;SDS011;65585;51.166;16.922;2024-01-15T15:21:27;4.00;;;2.75;;
76667;SDS011;65585;51.166;16.922;2024-01-15T15:23:55;9.48;;;3.22;;
76667;SDS011;65585;51.166;16.922;2024-01-15T15:26:21;4.80;;;3.22;;
76667;SDS011;65585;51.166;16.922;2024-01-15T15:28:50;8.27;;;2.35;;
76667;SDS011;65585;51.166;16.922;2024-01-15T15:31:22;3.40;;;2.38;;
76667;SDS011;65585;51.166;16.922;2024-01-15T15:33:48;4.90;;;2.70;;
76667;SDS011;65585;51.166;16.922;2024-01-15T15:36:14;4.78;;;3.00;;
76667;SDS011;65585;51.166;16.922;2024-01-15T15:38:40;4.65;;;2.55;;
76667;SDS011;65585;51.166;16.922;2024-01-15T15:41:06;5.50;;;2.83;;
76667;SDS011;65585;51.166;16.922;2024-01-15T15:43:36;4.32;;;2.50;;
76667;SDS011;65585;51.166;16.922;2024-01-15T15:46:05;6.50;;;2.88;;
76667;SDS011;65585;51.166;16.922;2024-01-15T15:48:36;4.13;;;2.25;;
76667;SDS011;65585;51.166;16.922;2024-01-15T15:51:05;6.28;;;3.10;;
76667;SDS011;65585;51.166;16.922;2024-01-15T15:53:31;4.72;;;2.60;;
76667;SDS011;65585;51.166;16.922;2024-01-15T15:55:57;6.82;;;3.17;;
76667;SDS011;65585;51.166;16.922;2024-01-15T15:58:24;4.03;;;2.35;;
76667;SDS011;65585;51.166;16.922;2024-01-15T16:00:50;4.38;;;2.85;;
76667;SDS011;65585;51.166;16.922;2024-01-15T16:03:19;4.30;;;2.60;;
76667;SDS011;65585;51.166;16.922;2024-01-15T16:05:45;5.57;;;2.92;;
76667;SDS011;65585;51.166;16.922;2024-01-15T16:08:12;8.40;;;3.55;;
76667;SDS011;65585;51.166;16.922;2024-01-15T16:10:38;10.25;;;4.45;;